Xavier Cenac — WDI6829 — position and weather

sailwx.info

Track history (hours):
 
Tides and Currents Weather Stations Pressure Air Temp Water Temp Dewpoint Dewpoint Depression Visibility Wind Speed Wind Dir Waves Ship Positions

Xavier Cenac

Owner: Cenac Marine Services LLC, Houma, LA. More information available from US FCC via Universal Licensing System and Coast Guard Vessel Documentation Center.

Last reported at 2017-Sep-23 23:28 UTC. Time now 2017-Sep-23 23:42 UTC.
Position N 29°34' W 090°43'.

Length 23 m; draft 2.6 m.

Type: Tug. MMSI: 367722660.

Date/timePositionNaut miles runAvg speedWind from/ knotsBaromVisibWave heightAir tempDewpointWater temp
2017-Sep-23 23:28N 29°34' W 090°43'0 0.0
2017-Sep-23 22:58N 29°34' W 090°43'0 0.0
2017-Sep-23 22:28N 29°34' W 090°43'0 0.0
2017-Sep-23 21:58N 29°34' W 090°43'0 0.0
2017-Sep-23 21:28N 29°34' W 090°43'0 0.0
2017-Sep-23 20:58N 29°34' W 090°43'0 0.0
2017-Sep-23 20:28N 29°34' W 090°43'0 0.0
2017-Sep-23 19:58N 29°34' W 090°43'  
2017-Sep-20 10:32N 29°50' W 091°60'0 4.7
2017-Sep-20 10:29N 29°50' W 091°60'2 4.8
2017-Sep-20 10:00N 29°49' W 092°02'2 4.8
2017-Sep-20 09:30N 29°48' W 092°05'3 5.0
2017-Sep-20 09:00N 29°47' W 092°08'2 4.2
2017-Sep-20 08:30N 29°47' W 092°10'1 2.5
2017-Sep-20 08:00N 29°47' W 092°11'2 4.4
2017-Sep-20 07:31N 29°48' W 092°14'3 5.9
2017-Sep-20 07:01N 29°49' W 092°17'41 4.7
2017-Sep-19 22:13N 29°56' W 093°03'1 4.3
2017-Sep-19 21:57N 29°56' W 093°05'2 4.5
2017-Sep-19 21:30N 29°56' W 093°07'2 4.5
2017-Sep-19 21:00N 29°56' W 093°10'2 4.7
2017-Sep-19 20:30N 29°58' W 093°11'2 4.7
2017-Sep-19 20:00N 29°60' W 093°13'2 4.0
2017-Sep-19 19:30N 30°02' W 093°14'2 3.9
2017-Sep-19 19:00N 30°03' W 093°16'2 4.8
2017-Sep-19 18:30N 30°05' W 093°17'2 3.4
2017-Sep-19 18:00N 30°06' W 093°19'2 4.5
2017-Sep-19 17:30N 30°04' W 093°21'2 3.7
2017-Sep-19 17:00N 30°04' W 093°23'3 5.4
2017-Sep-19 16:30N 30°04' W 093°26'3 5.4
2017-Sep-19 16:00N 30°04' W 093°29'3 5.3
2017-Sep-19 15:29N 30°04' W 093°32'3 5.2
2017-Sep-19 14:52N 30°04' W 093°36'2 5.7
2017-Sep-19 14:29N 30°04' W 093°39'  
2017-Sep-17 03:14N 29°59' W 093°52'1 3.9
2017-Sep-17 02:58N 29°58' W 093°51'7 7.4
2017-Sep-17 02:02N 30°02' W 093°44'2 7.6
2017-Sep-17 01:49N 30°03' W 093°43'2 6.7
2017-Sep-17 01:30N 30°04' W 093°41'3 6.8
2017-Sep-17 01:00N 30°04' W 093°37'3 5.9
2017-Sep-17 00:30N 30°04' W 093°33'3 5.9
2017-Sep-17 00:00N 30°04' W 093°30'2 4.1
2017-Sep-16 23:31N 30°04' W 093°28'3 5.7
2017-Sep-16 23:01N 30°04' W 093°24'3 5.6
2017-Sep-16 22:30N 30°04' W 093°21'3 6.0
2017-Sep-16 22:00N 30°06' W 093°19'2 4.4
2017-Sep-16 21:28N 30°05' W 093°17'1 1.9
2017-Sep-16 21:00N 30°04' W 093°16'3 6.2
2017-Sep-16 20:30N 30°01' W 093°14'3 6.8
2017-Sep-16 20:00N 29°59' W 093°12'3 6.8
2017-Sep-16 19:30N 29°56' W 093°09'43 6.0
2017-Sep-16 12:16N 29°50' W 092°20'2 5.7
2017-Sep-16 12:00N 29°50' W 092°18'3 5.2
2017-Sep-16 11:30N 29°48' W 092°16'2 4.5
2017-Sep-16 11:01N 29°48' W 092°13'0 0.3
2017-Sep-16 10:28N 29°47' W 092°13'0 0.0
2017-Sep-16 09:58N 29°47' W 092°13'0 0.0
2017-Sep-16 09:28N 29°47' W 092°13'0 0.3
2017-Sep-16 08:59N 29°47' W 092°13'1 3.1
2017-Sep-16 08:30N 29°47' W 092°11'1 1.0
2017-Sep-16 07:59N 29°47' W 092°11'0 0.0
2017-Sep-16 07:29N 29°47' W 092°11'0 0.0
2017-Sep-16 06:59N 29°47' W 092°11'0 0.0
2017-Sep-16 06:29N 29°47' W 092°11'0 0.0
2017-Sep-16 05:59N 29°47' W 092°11'0 0.0
2017-Sep-16 05:29N 29°47' W 092°11'0 0.0
2017-Sep-16 04:59N 29°47' W 092°11'0 0.1
2017-Sep-16 04:30N 29°47' W 092°11'2 3.5
2017-Sep-16 04:00N 29°47' W 092°09'3 5.2
2017-Sep-16 03:31N 29°48' W 092°06'3 5.9
2017-Sep-16 03:01N 29°49' W 092°03'  
Track history (hours):
 
Tides and Currents Weather Stations Pressure Air Temp Water Temp Dewpoint Dewpoint Depression Visibility Wind Speed Wind Dir Waves Ship Positions

Xavier Cenac

Owner: Cenac Marine Services LLC, Houma, LA. More information available from US FCC via Universal Licensing System and Coast Guard Vessel Documentation Center.

Last reported at 2017-Sep-23 23:28 UTC. Time now 2017-Sep-23 23:42 UTC.
Position N 29°34' W 090°43'.

Length 23 m; draft 2.6 m.

Type: Tug. MMSI: 367722660.

Date/timePositionNaut miles runAvg speedWind from/ knotsBaromVisibWave heightAir tempDewpointWater temp
2017-Sep-23 23:28N 29°34' W 090°43'0 0.0
2017-Sep-23 22:58N 29°34' W 090°43'0 0.0
2017-Sep-23 22:28N 29°34' W 090°43'0 0.0
2017-Sep-23 21:58N 29°34' W 090°43'0 0.0
2017-Sep-23 21:28N 29°34' W 090°43'0 0.0
2017-Sep-23 20:58N 29°34' W 090°43'0 0.0
2017-Sep-23 20:28N 29°34' W 090°43'0 0.0
2017-Sep-23 19:58N 29°34' W 090°43'  
2017-Sep-20 10:32N 29°50' W 091°60'0 4.7
2017-Sep-20 10:29N 29°50' W 091°60'2 4.8
2017-Sep-20 10:00N 29°49' W 092°02'2 4.8
2017-Sep-20 09:30N 29°48' W 092°05'3 5.0
2017-Sep-20 09:00N 29°47' W 092°08'2 4.2
2017-Sep-20 08:30N 29°47' W 092°10'1 2.5
2017-Sep-20 08:00N 29°47' W 092°11'2 4.4
2017-Sep-20 07:31N 29°48' W 092°14'3 5.9
2017-Sep-20 07:01N 29°49' W 092°17'41 4.7
2017-Sep-19 22:13N 29°56' W 093°03'1 4.3
2017-Sep-19 21:57N 29°56' W 093°05'2 4.5
2017-Sep-19 21:30N 29°56' W 093°07'2 4.5
2017-Sep-19 21:00N 29°56' W 093°10'2 4.7
2017-Sep-19 20:30N 29°58' W 093°11'2 4.7
2017-Sep-19 20:00N 29°60' W 093°13'2 4.0
2017-Sep-19 19:30N 30°02' W 093°14'2 3.9
2017-Sep-19 19:00N 30°03' W 093°16'2 4.8
2017-Sep-19 18:30N 30°05' W 093°17'2 3.4
2017-Sep-19 18:00N 30°06' W 093°19'2 4.5
2017-Sep-19 17:30N 30°04' W 093°21'2 3.7
2017-Sep-19 17:00N 30°04' W 093°23'3 5.4
2017-Sep-19 16:30N 30°04' W 093°26'3 5.4
2017-Sep-19 16:00N 30°04' W 093°29'3 5.3
2017-Sep-19 15:29N 30°04' W 093°32'3 5.2
2017-Sep-19 14:52N 30°04' W 093°36'2 5.7
2017-Sep-19 14:29N 30°04' W 093°39'  
2017-Sep-17 03:14N 29°59' W 093°52'1 3.9
2017-Sep-17 02:58N 29°58' W 093°51'7 7.4
2017-Sep-17 02:02N 30°02' W 093°44'2 7.6
2017-Sep-17 01:49N 30°03' W 093°43'2 6.7
2017-Sep-17 01:30N 30°04' W 093°41'3 6.8
2017-Sep-17 01:00N 30°04' W 093°37'3 5.9
2017-Sep-17 00:30N 30°04' W 093°33'3 5.9
2017-Sep-17 00:00N 30°04' W 093°30'2 4.1
2017-Sep-16 23:31N 30°04' W 093°28'3 5.7
2017-Sep-16 23:01N 30°04' W 093°24'3 5.6
2017-Sep-16 22:30N 30°04' W 093°21'3 6.0
2017-Sep-16 22:00N 30°06' W 093°19'2 4.4
2017-Sep-16 21:28N 30°05' W 093°17'1 1.9
2017-Sep-16 21:00N 30°04' W 093°16'3 6.2
2017-Sep-16 20:30N 30°01' W 093°14'3 6.8
2017-Sep-16 20:00N 29°59' W 093°12'3 6.8
2017-Sep-16 19:30N 29°56' W 093°09'43 6.0
2017-Sep-16 12:16N 29°50' W 092°20'2 5.7
2017-Sep-16 12:00N 29°50' W 092°18'3 5.2
2017-Sep-16 11:30N 29°48' W 092°16'2 4.5
2017-Sep-16 11:01N 29°48' W 092°13'0 0.3
2017-Sep-16 10:28N 29°47' W 092°13'0 0.0
2017-Sep-16 09:58N 29°47' W 092°13'0 0.0
2017-Sep-16 09:28N 29°47' W 092°13'0 0.3
2017-Sep-16 08:59N 29°47' W 092°13'1 3.1
2017-Sep-16 08:30N 29°47' W 092°11'1 1.0
2017-Sep-16 07:59N 29°47' W 092°11'0 0.0
2017-Sep-16 07:29N 29°47' W 092°11'0 0.0
2017-Sep-16 06:59N 29°47' W 092°11'0 0.0
2017-Sep-16 06:29N 29°47' W 092°11'0 0.0
2017-Sep-16 05:59N 29°47' W 092°11'0 0.0
2017-Sep-16 05:29N 29°47' W 092°11'0 0.0
2017-Sep-16 04:59N 29°47' W 092°11'0 0.1
2017-Sep-16 04:30N 29°47' W 092°11'2 3.5
2017-Sep-16 04:00N 29°47' W 092°09'3 5.2
2017-Sep-16 03:31N 29°48' W 092°06'3 5.9
2017-Sep-16 03:01N 29°49' W 092°03'  

Dump ship's entire track history